createdAt,value
2018-06-16T00:00:16.164Z,16.40
2018-06-16T00:00:49.151Z,17.17
2018-06-16T00:01:22.197Z,20.95
2018-06-16T00:03:24.840Z,18.92
2018-06-16T00:03:57.848Z,19.98
2018-06-16T00:04:30.872Z,16.65
2018-06-16T00:05:03.939Z,17.48
2018-06-16T00:05:36.946Z,22.30
2018-06-16T00:06:09.942Z,18.40
2018-06-16T00:06:42.996Z,17.92
2018-06-16T00:07:16.052Z,18.25
2018-06-16T00:07:49.064Z,18.07
2018-06-16T00:08:22.107Z,18.57
2018-06-16T00:08:55.120Z,22.30
2018-06-16T00:09:28.108Z,18.48
2018-06-16T00:10:01.164Z,15.05
2018-06-16T00:10:34.219Z,19.52
2018-06-16T00:15:57.953Z,19.32
2018-06-16T00:16:30.992Z,18.07
2018-06-16T00:17:03.994Z,18.37
2018-06-16T00:17:37.002Z,20.32
2018-06-16T00:18:10.010Z,18.50
2018-06-16T00:18:43.555Z,17.07
2018-06-16T00:19:16.560Z,20.50
2018-06-16T00:20:52.761Z,20.80
2018-06-16T00:21:25.751Z,17.37
2018-06-16T00:21:58.786Z,18.32
2018-06-16T00:22:31.794Z,19.23
2018-06-16T00:23:04.812Z,17.52
2018-06-16T00:23:37.815Z,20.75
2018-06-16T00:24:10.839Z,19.55
2018-06-16T00:24:43.834Z,23.15
2018-06-16T00:25:16.837Z,18.45
2018-06-16T00:25:50.529Z,21.02
2018-06-16T00:26:23.535Z,21.90
2018-06-16T00:26:56.553Z,19.35
2018-06-16T00:27:29.805Z,20.15
2018-06-16T00:28:02.829Z,19.37
2018-06-16T00:28:35.815Z,20.30
2018-06-16T00:29:08.795Z,19.55
2018-06-16T00:29:41.781Z,16.42
2018-06-16T00:32:56.179Z,21.23
2018-06-16T00:33:29.213Z,17.67
2018-06-16T00:34:02.210Z,19.57
2018-06-16T00:34:35.201Z,18.10
2018-06-16T00:35:08.222Z,18.50
2018-06-16T00:35:41.235Z,21.12
2018-06-16T00:36:14.229Z,21.45
2018-06-16T00:36:47.187Z,18.45
2018-06-16T00:37:21.029Z,17.82
2018-06-16T00:37:54.031Z,20.27
2018-06-16T00:38:27.107Z,19.35
2018-06-16T00:39:00.113Z,24.65
2018-06-16T00:39:33.109Z,20.48
2018-06-16T00:40:06.149Z,17.52
2018-06-16T00:40:39.149Z,19.02
2018-06-16T00:41:12.269Z,18.42
2018-06-16T00:41:45.243Z,17.65
2018-06-16T00:42:18.271Z,21.77
2018-06-16T00:42:51.335Z,18.67
2018-06-16T00:43:24.331Z,21.85
2018-06-16T00:43:57.329Z,17.42
2018-06-16T00:44:30.331Z,19.02
2018-06-16T00:45:03.537Z,16.60
2018-06-16T00:45:36.537Z,20.82
2018-06-16T00:46:09.572Z,17.90
2018-06-16T00:46:42.555Z,23.02
2018-06-16T00:47:15.555Z,23.65
2018-06-16T00:47:48.587Z,18.20
2018-06-16T00:48:21.600Z,24.15
2018-06-16T00:48:54.593Z,19.55
2018-06-16T00:49:27.583Z,19.17
2018-06-16T00:50:00.596Z,17.62
2018-06-16T00:50:33.560Z,21.20
2018-06-16T00:51:06.553Z,21.17
2018-06-16T00:51:39.531Z,23.70
2018-06-16T00:52:12.523Z,19.80
2018-06-16T00:52:45.495Z,17.90
2018-06-16T00:53:18.475Z,21.40
2018-06-16T00:53:51.503Z,20.02
2018-06-16T00:54:24.531Z,21.60
2018-06-16T00:54:57.575Z,21.27
2018-06-16T00:55:30.571Z,19.10
2018-06-16T00:56:03.613Z,25.85
2018-06-16T00:56:36.593Z,20.30
2018-06-16T00:57:26.908Z,17.55
2018-06-16T00:57:59.865Z,21.93
2018-06-16T00:58:32.886Z,21.80
2018-06-16T00:59:05.907Z,22.98
2018-06-16T00:59:38.997Z,22.48
2018-06-16T01:00:12.357Z,21.00
2018-06-16T01:00:45.371Z,23.03
2018-06-16T01:01:18.415Z,25.55
2018-06-16T01:01:51.433Z,21.02
2018-06-16T01:02:24.447Z,19.45
2018-06-16T01:02:57.437Z,21.90
2018-06-16T01:03:30.423Z,21.05
2018-06-16T01:04:03.514Z,22.27
2018-06-16T01:04:36.511Z,22.90
2018-06-16T01:05:10.085Z,21.02
2018-06-16T01:05:43.103Z,26.35
2018-06-16T01:06:16.099Z,24.43
2018-06-16T01:06:49.083Z,19.98
2018-06-16T01:07:22.099Z,22.22
2018-06-16T01:07:55.109Z,21.55
2018-06-16T01:08:28.094Z,22.73
2018-06-16T01:09:01.131Z,19.92
2018-06-16T01:09:34.149Z,18.50
2018-06-16T01:10:07.969Z,21.52
2018-06-16T01:10:40.937Z,22.32
2018-06-16T01:11:13.939Z,18.37
2018-06-16T01:11:47.022Z,22.45
2018-06-16T01:12:20.032Z,22.52
2018-06-16T01:12:53.053Z,25.80
2018-06-16T01:13:26.059Z,23.12
2018-06-16T01:13:59.037Z,22.50
2018-06-16T01:14:32.153Z,23.27
2018-06-16T01:15:05.643Z,19.17
2018-06-16T01:15:38.626Z,23.18
2018-06-16T01:16:11.624Z,22.65
2018-06-16T01:16:44.659Z,21.12
2018-06-16T01:17:17.697Z,22.98
2018-06-16T01:17:50.715Z,25.08
2018-06-16T01:18:23.713Z,24.80
2018-06-16T01:18:56.717Z,18.35
2018-06-16T01:19:29.727Z,23.60
2018-06-16T01:20:02.859Z,21.30
2018-06-16T01:20:35.859Z,27.50
2018-06-16T01:21:08.841Z,24.87
2018-06-16T01:21:41.844Z,21.77
2018-06-16T01:22:14.879Z,22.27
2018-06-16T01:22:47.913Z,23.50
2018-06-16T01:23:20.916Z,26.93
2018-06-16T01:23:53.940Z,22.13
2018-06-16T01:24:27.616Z,22.55
2018-06-16T01:25:00.629Z,20.02
2018-06-16T01:25:33.675Z,24.90
2018-06-16T01:26:06.666Z,23.47
2018-06-16T01:26:40.124Z,24.20
2018-06-16T01:27:13.192Z,21.50
2018-06-16T01:27:46.199Z,23.25
2018-06-16T01:28:19.653Z,20.12
2018-06-16T01:28:52.643Z,22.45
2018-06-16T01:29:25.601Z,19.57
2018-06-16T01:29:58.604Z,20.52
2018-06-16T01:30:31.609Z,21.65
2018-06-16T01:31:04.648Z,22.67
2018-06-16T01:31:37.675Z,23.20
2018-06-16T01:32:10.675Z,22.48
2018-06-16T01:32:43.679Z,25.92
2018-06-16T01:33:16.657Z,19.65
2018-06-16T01:33:49.647Z,25.00
2018-06-16T01:34:22.634Z,19.60
2018-06-16T01:34:55.620Z,21.77
2018-06-16T01:35:28.603Z,26.45
2018-06-16T01:36:01.596Z,24.20
2018-06-16T01:36:34.670Z,28.83
2018-06-16T01:37:07.646Z,20.80
2018-06-16T01:37:40.660Z,24.75
2018-06-16T01:38:13.622Z,19.23
2018-06-16T01:38:46.648Z,20.02
2018-06-16T01:39:19.664Z,21.68
2018-06-16T01:39:52.647Z,19.37
2018-06-16T01:40:25.817Z,24.85
2018-06-16T01:40:58.826Z,25.17
2018-06-16T01:41:31.820Z,23.32
2018-06-16T01:42:04.830Z,20.57
2018-06-16T01:42:37.878Z,20.02
2018-06-16T01:43:10.878Z,23.27
2018-06-16T01:43:43.831Z,23.60
2018-06-16T01:44:16.837Z,20.75
2018-06-16T01:44:49.816Z,18.07
2018-06-16T01:45:23.063Z,20.55
2018-06-16T01:45:56.691Z,22.58
2018-06-16T01:46:29.696Z,21.27
2018-06-16T01:47:02.668Z,21.70
2018-06-16T01:47:35.648Z,18.67
2018-06-16T01:48:08.656Z,18.10
2018-06-16T01:48:41.773Z,21.55
2018-06-16T01:49:14.787Z,19.90
2018-06-16T01:49:47.764Z,20.62
2018-06-16T01:50:20.804Z,23.90
2018-06-16T01:50:53.804Z,19.92
2018-06-16T01:51:26.788Z,16.93
2018-06-16T01:51:59.815Z,22.77
2018-06-16T01:52:32.799Z,20.72
2018-06-16T01:53:05.796Z,17.07
2018-06-16T01:53:38.820Z,22.45
2018-06-16T01:54:11.823Z,20.80
2018-06-16T01:54:44.822Z,26.10
2018-06-16T01:55:17.796Z,18.67
2018-06-16T01:55:50.856Z,22.60
2018-06-16T01:56:23.964Z,21.10
2018-06-16T01:56:57.032Z,16.17
2018-06-16T01:57:30.024Z,19.07
2018-06-16T01:58:02.988Z,22.30
2018-06-16T01:58:35.949Z,18.65
2018-06-16T01:59:08.903Z,19.07
2018-06-16T01:59:41.904Z,18.02
2018-06-16T02:00:14.930Z,21.30
2018-06-16T02:00:47.938Z,19.02
2018-06-16T02:01:20.974Z,25.12
2018-06-16T02:01:53.964Z,18.62
2018-06-16T02:02:26.930Z,20.40
2018-06-16T02:02:59.944Z,20.37
2018-06-16T02:03:33.054Z,21.10
2018-06-16T02:04:06.131Z,20.57
2018-06-16T02:04:39.124Z,24.75
2018-06-16T02:05:12.118Z,19.52
2018-06-16T02:05:45.154Z,23.27
2018-06-16T02:06:19.136Z,22.10
2018-06-16T02:06:52.108Z,17.55
2018-06-16T02:07:25.132Z,19.37
2018-06-16T02:07:58.169Z,20.37
2018-06-16T02:08:31.188Z,18.65
2018-06-16T02:09:09.410Z,18.23
2018-06-16T02:09:42.417Z,21.02
2018-06-16T02:10:15.438Z,20.97
2018-06-16T02:10:48.422Z,22.62
2018-06-16T02:11:21.410Z,24.30
2018-06-16T02:11:54.504Z,20.05
2018-06-16T02:12:27.476Z,16.73
2018-06-16T02:13:00.508Z,18.67
2018-06-16T02:13:33.522Z,18.62
2018-06-16T02:14:07.004Z,17.55
2018-06-16T02:14:39.988Z,20.70
2018-06-16T02:16:42.524Z,25.05
2018-06-16T02:17:15.768Z,17.73
2018-06-16T02:17:48.709Z,15.05
2018-06-16T02:18:21.707Z,20.25
2018-06-16T02:18:54.710Z,19.55
2018-06-16T02:19:27.714Z,22.45
2018-06-16T02:20:00.732Z,18.48
2018-06-16T02:20:33.722Z,21.75
2018-06-16T02:21:06.689Z,18.67
2018-06-16T02:21:39.696Z,21.77
2018-06-16T02:22:12.740Z,16.32
2018-06-16T02:22:45.764Z,19.98
2018-06-16T02:23:18.732Z,21.75
2018-06-16T02:23:51.708Z,20.92
2018-06-16T02:24:24.712Z,20.85
2018-06-16T02:24:57.709Z,20.27
2018-06-16T02:25:30.686Z,19.77
2018-06-16T02:26:03.741Z,21.90
2018-06-16T02:26:36.729Z,22.52
2018-06-16T02:27:09.696Z,24.05
2018-06-16T02:27:42.707Z,23.22
2018-06-16T02:28:15.684Z,26.15
2018-06-16T02:28:48.685Z,26.40
2018-06-16T02:29:21.700Z,28.55
2018-06-16T02:29:54.711Z,31.42
2018-06-16T02:30:27.706Z,26.68
2018-06-16T02:31:00.744Z,28.27
2018-06-16T02:31:33.733Z,29.27
2018-06-16T02:32:06.762Z,30.25
2018-06-16T02:32:39.756Z,29.05
2018-06-16T02:33:12.782Z,33.02
2018-06-16T02:33:45.794Z,30.45
2018-06-16T02:34:18.774Z,34.70
2018-06-16T02:34:52.216Z,32.58
2018-06-16T02:35:25.216Z,38.17
2018-06-16T02:35:58.203Z,36.48
2018-06-16T02:36:31.204Z,33.15
2018-06-16T02:37:04.206Z,36.28
2018-06-16T02:37:37.254Z,31.95
2018-06-16T02:38:10.291Z,36.80
2018-06-16T02:38:43.312Z,36.73
2018-06-16T02:39:16.326Z,36.93
2018-06-16T02:39:49.321Z,36.68
2018-06-16T02:40:22.308Z,36.53
2018-06-16T02:40:55.316Z,35.15
2018-06-16T02:41:28.337Z,38.42
2018-06-16T02:42:01.374Z,38.92
2018-06-16T02:42:34.356Z,44.70
2018-06-16T02:43:07.338Z,46.37
2018-06-16T02:43:40.309Z,46.02
2018-06-16T02:44:13.290Z,44.75
2018-06-16T02:44:46.249Z,48.02
2018-06-16T02:46:21.048Z,47.40
2018-06-16T02:46:54.335Z,45.58
2018-06-16T02:47:27.355Z,51.58
2018-06-16T02:48:00.344Z,48.13
2018-06-16T02:48:33.333Z,52.83
2018-06-16T02:49:06.302Z,53.40
2018-06-16T02:49:39.306Z,52.65
2018-06-16T02:50:12.360Z,53.05
2018-06-16T02:50:45.304Z,54.77
2018-06-16T02:51:18.300Z,53.85
2018-06-16T02:51:51.333Z,51.85
2018-06-16T02:52:24.329Z,54.20
2018-06-16T02:52:57.325Z,51.00
2018-06-16T02:53:30.323Z,61.05
2018-06-16T02:54:03.383Z,53.42
2018-06-16T02:54:36.430Z,55.40
2018-06-16T02:55:09.462Z,56.25
2018-06-16T02:55:42.436Z,54.85
2018-06-16T02:56:15.436Z,55.17
2018-06-16T02:56:48.453Z,55.85
2018-06-16T02:57:21.404Z,53.73
2018-06-16T02:57:54.371Z,61.40
2018-06-16T02:58:27.350Z,56.63
2018-06-16T02:59:00.344Z,59.95
2018-06-16T02:59:33.607Z,52.03
2018-06-16T03:00:06.632Z,52.17
2018-06-16T03:00:39.632Z,57.93
2018-06-16T03:01:12.629Z,52.20
2018-06-16T03:01:46.157Z,51.83
2018-06-16T03:02:19.180Z,55.45
2018-06-16T03:02:52.202Z,55.60
2018-06-16T03:03:25.887Z,55.50
2018-06-16T03:03:58.822Z,58.90
2018-06-16T03:04:31.856Z,54.48
2018-06-16T03:05:04.906Z,60.23
2018-06-16T03:05:37.896Z,52.90
2018-06-16T03:06:10.928Z,60.80
2018-06-16T03:06:43.965Z,51.02
2018-06-16T03:07:16.961Z,54.85
2018-06-16T03:07:50.037Z,53.87
2018-06-16T03:08:23.072Z,54.15
2018-06-16T03:08:56.076Z,56.95
2018-06-16T03:09:29.042Z,56.15
2018-06-16T03:10:02.052Z,58.28
2018-06-16T03:10:35.072Z,54.95
2018-06-16T03:11:08.074Z,55.03
2018-06-16T03:11:41.067Z,56.13
2018-06-16T03:12:14.060Z,54.85
2018-06-16T03:12:47.055Z,56.55
2018-06-16T03:13:20.625Z,57.10
2018-06-16T03:13:53.604Z,51.42
2018-06-16T03:14:26.617Z,58.95
2018-06-16T03:15:00.253Z,58.75
2018-06-16T03:15:33.280Z,60.70
2018-06-16T03:16:06.672Z,55.70
2018-06-16T03:16:39.634Z,61.30
2018-06-16T03:17:12.633Z,59.60
2018-06-16T03:17:45.620Z,54.42
2018-06-16T03:18:18.600Z,52.90
2018-06-16T03:18:51.633Z,50.65
2018-06-16T03:19:24.631Z,52.48
2018-06-16T03:19:57.667Z,59.03
2018-06-16T03:21:34.294Z,54.50
2018-06-16T03:22:07.410Z,52.93
2018-06-16T03:22:40.429Z,51.48
2018-06-16T03:23:13.488Z,52.80
2018-06-16T03:23:46.562Z,56.68
2018-06-16T03:24:19.645Z,55.27
2018-06-16T03:24:52.627Z,54.05
2018-06-16T03:25:25.641Z,52.43
2018-06-16T03:25:58.632Z,49.53
2018-06-16T03:26:31.626Z,49.27
2018-06-16T03:27:04.698Z,53.23
2018-06-16T03:27:37.818Z,47.10
2018-06-16T03:28:10.881Z,44.58
2018-06-16T03:28:43.895Z,46.15
2018-06-16T03:29:16.879Z,50.05
2018-06-16T03:29:49.877Z,44.98
2018-06-16T03:30:22.846Z,46.73
2018-06-16T03:30:55.838Z,53.45
2018-06-16T03:31:28.843Z,46.88
2018-06-16T03:32:01.841Z,54.27
2018-06-16T03:32:34.796Z,49.35
2018-06-16T03:33:07.802Z,49.08
2018-06-16T03:33:40.831Z,48.45
2018-06-16T03:34:13.815Z,53.00
2018-06-16T03:34:46.796Z,52.43
2018-06-16T03:35:19.797Z,54.80
2018-06-16T03:35:52.820Z,51.08
2018-06-16T03:36:25.886Z,48.38
2018-06-16T03:36:58.869Z,55.28
2018-06-16T03:37:31.834Z,52.50
2018-06-16T03:38:04.886Z,56.08
2018-06-16T03:38:37.894Z,52.62
2018-06-16T03:39:10.905Z,61.18
2018-06-16T03:39:43.905Z,53.17
2018-06-16T03:40:16.904Z,59.08
2018-06-16T03:40:49.918Z,55.48
2018-06-16T03:41:22.921Z,54.98
2018-06-16T03:41:55.913Z,57.15
2018-06-16T03:42:28.954Z,55.78
2018-06-16T03:43:01.967Z,54.27
2018-06-16T03:43:34.970Z,55.55
2018-06-16T03:44:07.982Z,55.98
2018-06-16T03:44:41.578Z,58.13
2018-06-16T03:45:14.583Z,54.25
2018-06-16T03:45:47.565Z,58.68
2018-06-16T03:46:20.613Z,56.75
2018-06-16T03:46:53.632Z,53.90
2018-06-16T03:47:26.636Z,51.28
2018-06-16T03:47:59.754Z,56.00
2018-06-16T03:48:32.728Z,53.10
2018-06-16T03:49:06.226Z,51.73
2018-06-16T03:49:39.250Z,53.52
2018-06-16T03:50:12.263Z,54.45
2018-06-16T03:50:45.276Z,55.30
2018-06-16T03:51:18.232Z,53.85
2018-06-16T03:51:51.192Z,57.05
2018-06-16T03:52:24.218Z,60.70
2018-06-16T03:52:57.185Z,55.60
2018-06-16T03:53:30.206Z,55.28
2018-06-16T03:54:03.235Z,55.83
2018-06-16T03:54:36.227Z,55.03
2018-06-16T03:55:09.230Z,54.93
2018-06-16T03:55:42.252Z,53.15
2018-06-16T03:56:15.282Z,57.75
2018-06-16T03:56:48.280Z,52.60
2018-06-16T03:57:21.310Z,53.83
2018-06-16T03:57:54.339Z,57.30
2018-06-16T03:58:27.350Z,60.05
2018-06-16T03:59:00.330Z,56.25
2018-06-16T03:59:33.340Z,53.40
2018-06-16T04:00:06.353Z,62.23
2018-06-16T04:00:39.353Z,56.48
2018-06-16T04:01:13.044Z,54.27
2018-06-16T04:01:46.044Z,62.40
2018-06-16T04:02:19.218Z,60.33
2018-06-16T04:02:52.236Z,62.17
2018-06-16T04:03:25.230Z,61.50
2018-06-16T04:03:58.212Z,62.55
2018-06-16T04:04:31.206Z,60.08
2018-06-16T04:05:04.512Z,54.83
2018-06-16T04:05:37.507Z,55.43
2018-06-16T04:06:10.544Z,61.48
2018-06-16T04:06:43.520Z,54.63
2018-06-16T04:07:16.507Z,58.23
2018-06-16T04:07:49.495Z,58.28
2018-06-16T04:08:22.524Z,55.05
2018-06-16T04:08:55.534Z,55.03
2018-06-16T04:09:28.528Z,62.08
2018-06-16T04:10:01.512Z,60.25
2018-06-16T04:10:34.512Z,56.55
2018-06-16T04:11:07.524Z,57.88
2018-06-16T04:11:40.537Z,60.43
2018-06-16T04:12:13.526Z,62.90
2018-06-16T04:12:46.530Z,56.70
2018-06-16T04:13:19.548Z,58.00
2018-06-16T04:13:52.623Z,55.85
2018-06-16T04:14:25.603Z,63.28
2018-06-16T04:14:58.606Z,59.45
2018-06-16T04:15:31.728Z,61.23
2018-06-16T04:16:04.822Z,56.37
2018-06-16T04:16:37.861Z,61.53
2018-06-16T04:17:15.453Z,55.52
2018-06-16T04:17:48.395Z,58.38
2018-06-16T04:18:21.383Z,55.95
2018-06-16T04:18:54.379Z,56.53
2018-06-16T04:19:27.398Z,57.53
2018-06-16T04:20:00.392Z,51.90
2018-06-16T04:20:33.380Z,55.28
2018-06-16T04:21:06.384Z,54.63
2018-06-16T04:21:39.404Z,54.65
2018-06-16T04:22:12.484Z,54.85
2018-06-16T04:22:45.535Z,48.13
2018-06-16T04:23:18.540Z,47.20
2018-06-16T04:23:51.508Z,49.40
2018-06-16T04:24:24.488Z,45.63
2018-06-16T04:24:57.584Z,47.73
2018-06-16T04:25:30.603Z,40.83
2018-06-16T04:26:03.642Z,39.18
2018-06-16T04:26:36.683Z,37.83
2018-06-16T04:27:09.692Z,32.15
2018-06-16T04:27:42.656Z,34.27
2018-06-16T04:28:15.618Z,32.08
2018-06-16T04:28:48.644Z,31.65
2018-06-16T04:29:21.645Z,34.23
2018-06-16T04:29:54.662Z,37.53
2018-06-16T04:30:27.677Z,29.63
2018-06-16T04:31:00.698Z,30.65
2018-06-16T04:31:33.687Z,31.97
2018-06-16T04:32:06.824Z,28.75
2018-06-16T04:32:39.832Z,26.60
2018-06-16T04:33:12.861Z,27.73
2018-06-16T04:33:45.947Z,28.75
2018-06-16T04:34:19.005Z,25.70
2018-06-16T04:34:52.035Z,30.95
2018-06-16T04:35:25.036Z,27.60
2018-06-16T04:35:58.054Z,24.70
2018-06-16T04:36:31.065Z,27.27
2018-06-16T04:37:05.450Z,27.60
2018-06-16T04:37:38.472Z,26.42
2018-06-16T04:38:12.182Z,22.17
2018-06-16T04:38:45.166Z,26.77
2018-06-16T04:39:18.225Z,23.70
2018-06-16T04:39:51.200Z,27.52
2018-06-16T04:40:24.224Z,27.25
2018-06-16T04:40:57.220Z,21.95
2018-06-16T04:41:30.214Z,21.20
2018-06-16T04:42:03.832Z,24.32
2018-06-16T04:42:36.853Z,22.43
2018-06-16T04:43:09.815Z,22.45
2018-06-16T04:43:42.823Z,24.37
2018-06-16T04:44:15.824Z,22.35
2018-06-16T04:44:49.484Z,24.80
2018-06-16T04:45:22.491Z,27.62
2018-06-16T04:45:55.506Z,23.35
2018-06-16T04:46:28.520Z,25.62
2018-06-16T04:47:01.500Z,23.18
2018-06-16T04:47:34.688Z,23.25
2018-06-16T04:48:07.701Z,24.87
2018-06-16T04:48:40.716Z,23.35
2018-06-16T04:49:13.702Z,19.62
2018-06-16T04:49:46.698Z,24.95
2018-06-16T04:50:19.716Z,24.47
2018-06-16T04:50:52.743Z,22.07
2018-06-16T04:51:25.732Z,22.93
2018-06-16T04:51:58.828Z,21.60
2018-06-16T04:52:31.832Z,25.40
2018-06-16T04:53:04.903Z,21.02
2018-06-16T04:53:37.864Z,23.22
2018-06-16T04:54:10.850Z,23.25
2018-06-16T04:54:43.838Z,21.25
2018-06-16T04:55:16.827Z,24.50
2018-06-16T04:55:49.984Z,25.05
2018-06-16T04:56:22.967Z,20.57
2018-06-16T04:56:55.952Z,20.52
2018-06-16T04:57:28.961Z,21.57
2018-06-16T04:58:02.020Z,21.73
2018-06-16T04:58:35.026Z,22.25
2018-06-16T04:59:08.002Z,28.23
2018-06-16T04:59:40.989Z,21.33
2018-06-16T05:00:14.130Z,24.55
2018-06-16T05:00:47.161Z,20.72
2018-06-16T05:01:20.163Z,23.65
2018-06-16T05:01:53.151Z,21.33
2018-06-16T05:02:26.150Z,23.40
2018-06-16T05:02:59.264Z,21.12
2018-06-16T05:03:32.433Z,19.45
2018-06-16T05:04:05.415Z,21.37
2018-06-16T05:04:38.400Z,16.57
2018-06-16T05:05:11.434Z,19.25
2018-06-16T05:05:44.532Z,19.70
2018-06-16T05:06:17.522Z,19.75
2018-06-16T05:06:50.517Z,16.57
2018-06-16T05:07:23.532Z,21.05
2018-06-16T05:07:56.499Z,15.80
2018-06-16T05:08:29.478Z,18.87
2018-06-16T05:09:03.896Z,16.07
2018-06-16T05:09:36.862Z,22.90
2018-06-16T05:10:09.816Z,19.92
2018-06-16T05:10:42.767Z,19.17
2018-06-16T05:11:15.750Z,18.73
2018-06-16T05:11:48.852Z,20.90
2018-06-16T05:12:21.873Z,18.20
2018-06-16T05:12:54.824Z,15.63
2018-06-16T05:13:27.805Z,21.80
2018-06-16T05:14:00.794Z,18.32
2018-06-16T05:14:33.790Z,17.37
2018-06-16T05:15:06.955Z,16.32
2018-06-16T05:15:39.945Z,20.75
2018-06-16T05:16:13.011Z,16.40
2018-06-16T05:16:46.033Z,15.93
2018-06-16T05:17:19.111Z,14.13
2018-06-16T05:17:52.137Z,16.45
2018-06-16T05:18:25.140Z,17.85
2018-06-16T05:18:58.116Z,23.38
2018-06-16T05:19:31.069Z,17.40
2018-06-16T05:20:04.169Z,16.62
2018-06-16T05:20:37.119Z,18.12
2018-06-16T05:21:10.115Z,17.25
2018-06-16T05:21:43.064Z,17.17
2018-06-16T05:24:10.597Z,18.20
2018-06-16T05:24:43.604Z,21.10
2018-06-16T05:25:16.596Z,19.07
2018-06-16T05:25:49.651Z,19.02
2018-06-16T05:26:22.584Z,15.98
2018-06-16T05:26:55.592Z,16.52
2018-06-16T05:27:28.575Z,16.82
2018-06-16T05:28:01.549Z,16.50
2018-06-16T05:28:34.525Z,15.45
2018-06-16T05:29:07.585Z,18.07
2018-06-16T05:29:40.615Z,16.93
2018-06-16T05:30:13.604Z,15.30
2018-06-16T05:30:46.596Z,15.93
2018-06-16T05:32:49.197Z,20.55
2018-06-16T05:33:22.193Z,15.75
2018-06-16T05:33:55.369Z,19.77
2018-06-16T05:34:28.377Z,14.43
2018-06-16T05:35:01.389Z,16.00
2018-06-16T05:35:34.417Z,17.30
2018-06-16T05:36:07.461Z,19.50
2018-06-16T05:36:40.477Z,15.72
2018-06-16T05:37:13.469Z,16.75
2018-06-16T05:37:46.493Z,17.02
2018-06-16T05:38:19.557Z,16.42
2018-06-16T05:38:52.571Z,15.00
2018-06-16T05:39:25.601Z,19.02
2018-06-16T05:39:58.599Z,17.35
2018-06-16T05:40:31.605Z,14.53
2018-06-16T05:41:04.599Z,19.67
2018-06-16T05:41:37.945Z,20.35
2018-06-16T05:42:10.961Z,14.70
2018-06-16T05:42:43.940Z,14.93
2018-06-16T05:43:16.925Z,15.60
2018-06-16T05:43:49.937Z,17.45
2018-06-16T05:44:22.969Z,17.57
2018-06-16T05:44:56.891Z,19.05
2018-06-16T05:45:29.915Z,16.07
2018-06-16T05:46:03.120Z,19.77
2018-06-16T05:46:36.083Z,13.85
2018-06-16T05:47:09.081Z,15.58
2018-06-16T05:47:42.093Z,17.05
2018-06-16T05:48:15.044Z,15.32
2018-06-16T05:48:48.038Z,19.42
2018-06-16T05:49:21.053Z,15.63
2018-06-16T05:49:54.131Z,19.17
2018-06-16T05:50:27.145Z,19.20
2018-06-16T05:51:00.175Z,17.50
2018-06-16T05:51:33.149Z,19.85
2018-06-16T05:52:06.205Z,13.75
2018-06-16T05:52:39.203Z,14.73
2018-06-16T05:53:12.215Z,15.28
2018-06-16T05:53:45.215Z,17.52
2018-06-16T05:54:18.253Z,18.70
2018-06-16T05:54:51.287Z,18.65
2018-06-16T05:55:24.267Z,16.15
2018-06-16T05:55:57.283Z,16.15
2018-06-16T05:56:30.355Z,17.20
2018-06-16T05:57:03.395Z,13.70
2018-06-16T05:57:37.191Z,17.82
2018-06-16T05:58:10.175Z,19.30
2018-06-16T05:58:43.171Z,16.40
2018-06-16T05:59:16.235Z,17.37
2018-06-16T05:59:49.345Z,17.52
2018-06-16T06:00:22.346Z,15.78
2018-06-16T06:00:55.335Z,18.85
2018-06-16T06:01:28.345Z,17.90
2018-06-16T06:02:01.337Z,17.92
2018-06-16T06:02:34.327Z,16.95
2018-06-16T06:03:07.314Z,14.68
2018-06-16T06:03:40.307Z,16.00
2018-06-16T06:04:13.315Z,18.98
2018-06-16T06:04:46.345Z,18.37
2018-06-16T06:05:19.369Z,18.15
2018-06-16T06:05:52.383Z,19.67
2018-06-16T06:06:25.368Z,19.52
2018-06-16T06:06:58.391Z,16.00
2018-06-16T06:07:31.387Z,21.10
2018-06-16T06:08:04.459Z,23.95
2018-06-16T06:08:37.467Z,16.97
2018-06-16T06:09:10.628Z,17.87
2018-06-16T06:09:43.661Z,17.82
2018-06-16T06:10:16.731Z,19.20
2018-06-16T06:10:49.620Z,19.67
2018-06-16T06:11:22.655Z,16.02
2018-06-16T06:11:55.655Z,26.27
2018-06-16T06:12:29.691Z,19.12
2018-06-16T06:13:02.701Z,16.80
2018-06-16T06:13:35.703Z,19.17
2018-06-16T06:14:09.373Z,20.23
2018-06-16T06:14:42.540Z,18.45
2018-06-16T06:15:15.563Z,18.30
2018-06-16T06:15:48.608Z,17.57
2018-06-16T06:16:21.605Z,21.00
2018-06-16T06:16:55.535Z,19.67
2018-06-16T06:17:28.575Z,13.80
2018-06-16T06:18:01.638Z,17.35
2018-06-16T06:18:34.677Z,18.77
2018-06-16T06:19:07.699Z,21.27
2018-06-16T06:19:40.703Z,17.85
2018-06-16T06:20:13.689Z,15.35
2018-06-16T06:20:46.703Z,20.50
2018-06-16T06:21:19.680Z,18.10
2018-06-16T06:21:52.709Z,18.85
2018-06-16T06:22:25.716Z,18.23
2018-06-16T06:22:58.699Z,20.40
2018-06-16T06:23:31.744Z,21.68
2018-06-16T06:24:04.877Z,21.37
2018-06-16T06:24:37.904Z,21.93
2018-06-16T06:25:10.882Z,16.62
2018-06-16T06:25:43.883Z,21.17
2018-06-16T06:26:16.891Z,17.42
2018-06-16T06:26:49.895Z,18.17
2018-06-16T06:27:22.866Z,18.73
2018-06-16T06:27:56.282Z,19.30
2018-06-16T06:28:29.593Z,18.55
2018-06-16T06:29:02.592Z,18.37
2018-06-16T06:29:35.603Z,16.00
2018-06-16T06:30:08.609Z,20.20
2018-06-16T06:30:41.621Z,21.85
2018-06-16T06:31:14.615Z,19.62
2018-06-16T06:31:47.801Z,21.20
2018-06-16T06:32:20.777Z,22.07
2018-06-16T06:32:53.831Z,14.87
2018-06-16T06:33:26.801Z,18.62
2018-06-16T06:33:59.797Z,20.62
2018-06-16T06:34:32.833Z,16.80
2018-06-16T06:35:05.895Z,20.68
2018-06-16T06:35:38.899Z,19.55
2018-06-16T06:36:12.445Z,20.40
2018-06-16T06:36:47.113Z,16.57
2018-06-16T06:37:20.138Z,22.27
2018-06-16T06:37:53.133Z,16.97
2018-06-16T06:38:26.133Z,17.52
2018-06-16T06:38:59.138Z,21.87
2018-06-16T06:39:32.175Z,19.87
2018-06-16T06:40:05.463Z,21.85
2018-06-16T06:40:38.460Z,17.27
2018-06-16T06:41:12.234Z,23.22
2018-06-16T06:41:45.268Z,19.07
2018-06-16T06:42:18.262Z,21.17
2018-06-16T06:42:51.323Z,17.92
2018-06-16T06:43:24.418Z,19.32
2018-06-16T06:43:57.420Z,16.20
2018-06-16T06:44:30.452Z,19.52
2018-06-16T06:45:03.585Z,15.40
2018-06-16T06:45:36.604Z,19.05
2018-06-16T06:46:09.973Z,19.23
2018-06-16T06:46:42.983Z,19.98
2018-06-16T06:47:16.052Z,26.68
2018-06-16T06:47:49.062Z,25.35
2018-06-16T06:48:22.127Z,22.15
2018-06-16T06:48:55.179Z,18.17
2018-06-16T06:49:28.214Z,17.52
2018-06-16T06:50:01.218Z,16.40
2018-06-16T06:50:34.259Z,19.12
2018-06-16T06:51:07.313Z,14.75
2018-06-16T06:51:40.381Z,21.50
2018-06-16T06:52:13.367Z,17.95
2018-06-16T06:52:46.367Z,15.98
2018-06-16T06:53:19.389Z,24.02
2018-06-16T06:53:52.363Z,17.37
2018-06-16T06:54:25.387Z,18.40
2018-06-16T06:54:58.423Z,27.17
2018-06-16T06:55:31.489Z,23.40
2018-06-16T06:56:04.532Z,16.32
2018-06-16T06:56:37.539Z,15.98
2018-06-16T06:57:10.568Z,22.80
2018-06-16T06:57:43.567Z,19.40
2018-06-16T06:58:16.741Z,20.43
2018-06-16T06:58:49.777Z,15.95
2018-06-16T06:59:22.768Z,21.07
2018-06-16T06:59:55.799Z,19.32
2018-06-16T07:00:28.903Z,21.62
2018-06-16T07:01:01.900Z,19.02
2018-06-16T07:01:34.905Z,19.27
2018-06-16T07:02:07.905Z,17.27
2018-06-16T07:02:40.929Z,18.20
2018-06-16T07:03:13.929Z,17.20
2018-06-16T07:03:47.000Z,15.95
2018-06-16T07:04:20.034Z,17.92
2018-06-16T07:04:53.079Z,17.65
2018-06-16T07:05:26.100Z,18.62
2018-06-16T07:05:59.143Z,17.12
2018-06-16T07:06:32.146Z,17.85
2018-06-16T07:07:05.319Z,11.93
2018-06-16T07:07:38.344Z,17.12
2018-06-16T07:08:11.356Z,17.27
2018-06-16T07:08:44.382Z,17.17
2018-06-16T07:09:18.074Z,20.17
2018-06-16T07:09:51.081Z,12.47
2018-06-16T07:10:24.085Z,15.40
2018-06-16T07:10:57.102Z,15.77
2018-06-16T07:11:30.105Z,16.70
2018-06-16T07:12:03.140Z,13.00
2018-06-16T07:12:36.128Z,16.23
2018-06-16T07:13:09.148Z,12.55
2018-06-16T07:13:42.193Z,18.10
2018-06-16T07:14:15.211Z,15.00
2018-06-16T07:14:48.518Z,16.62
2018-06-16T07:15:21.546Z,16.75
2018-06-16T07:15:54.658Z,16.07
2018-06-16T07:16:27.710Z,17.87
2018-06-16T07:17:00.688Z,21.23
2018-06-16T07:17:33.719Z,15.17
2018-06-16T07:18:06.830Z,17.55
2018-06-16T07:20:10.018Z,17.07
2018-06-16T07:20:43.043Z,20.43
2018-06-16T07:21:16.071Z,13.95
2018-06-16T07:21:49.073Z,20.10
2018-06-16T07:22:22.084Z,11.63
2018-06-16T07:22:55.088Z,14.65
2018-06-16T07:23:28.127Z,18.23
2018-06-16T07:24:01.162Z,23.20
2018-06-16T07:24:34.154Z,15.03